YKB YSBK-YSDU
Flight info
| Callsign | YKB |
|---|---|
| Flight time | 1h 12m |
| Altitude | 12000 |
| Route | BK W339 KADOM DCT BTH DCT DU |
| Aircraft | DA42/L-SBDGRY/S |
Departure
| Time | 2026-05-06 10:47 |
|---|---|
| Airport | Sydney Bankstown Airport (YSBK) |
Arrival
| Time | 2026-05-06 12:00 |
|---|---|
| Airport | Dubbo City Regional Airport (YSDU) |
| Time | Latitude | Longitude | Altitude | Speed | Heading |
|---|---|---|---|---|---|
| 2026-05-06 10:40 | -33.91818 | 150.99672 | 60 ft | 0 kts | 192° |
| 2026-05-06 10:42 | -33.91840 | 150.99648 | 58 ft | 11 kts | 242° |
| 2026-05-06 10:43 | -33.91889 | 150.99591 | 54 ft | 12 kts | 195° |
| 2026-05-06 10:43 | -33.91936 | 150.99489 | 48 ft | 15 kts | 248° |
| 2026-05-06 10:43 | -33.91972 | 150.99377 | 44 ft | 13 kts | 249° |
| 2026-05-06 10:44 | -33.92057 | 150.99100 | 28 ft | 26 kts | 245° |
| 2026-05-06 10:44 | -33.92158 | 150.99066 | 24 ft | 15 kts | 123° |
| 2026-05-06 10:44 | -33.92214 | 150.99170 | 26 ft | 18 kts | 123° |
| 2026-05-06 10:44 | -33.92316 | 150.99358 | 34 ft | 27 kts | 122° |
| 2026-05-06 10:45 | -33.92404 | 150.99509 | 35 ft | 18 kts | 124° |
| 2026-05-06 10:45 | -33.92478 | 150.99631 | 34 ft | 16 kts | 132° |
| 2026-05-06 10:45 | -33.92520 | 150.99677 | 34 ft | 0 kts | 188° |
| 2026-05-06 10:46 | -33.92573 | 150.99643 | 32 ft | 19 kts | 201° |
| 2026-05-06 10:46 | -33.92655 | 150.99603 | 28 ft | 3 kts | 309° |
| 2026-05-06 10:46 | -33.92643 | 150.99585 | 28 ft | 0 kts | 303° |
| 2026-05-06 10:46 | -33.92587 | 150.99484 | 27 ft | 47 kts | 304° |
| 2026-05-06 10:47 | -33.92298 | 150.98970 | 65 ft | 89 kts | 304° |
| 2026-05-06 10:47 | -33.91973 | 150.98349 | 311 ft | 89 kts | 305° |
| 2026-05-06 10:47 | -33.91648 | 150.97705 | 566 ft | 93 kts | 305° |
| 2026-05-06 10:47 | -33.91305 | 150.97014 | 842 ft | 94 kts | 303° |
| 2026-05-06 10:48 | -33.90971 | 150.96323 | 1108 ft | 97 kts | 306° |
| 2026-05-06 10:48 | -33.90667 | 150.95604 | 1413 ft | 96 kts | 297° |
| 2026-05-06 10:48 | -33.90441 | 150.94865 | 1748 ft | 92 kts | 298° |
| 2026-05-06 10:48 | -33.90228 | 150.94157 | 2048 ft | 90 kts | 298° |
| 2026-05-06 10:49 | -33.90018 | 150.93466 | 2334 ft | 89 kts | 298° |
| 2026-05-06 10:49 | -33.89809 | 150.92770 | 2623 ft | 88 kts | 298° |
| 2026-05-06 10:49 | -33.89607 | 150.92082 | 2911 ft | 87 kts | 297° |
| 2026-05-06 10:49 | -33.89405 | 150.91399 | 3203 ft | 86 kts | 297° |
| 2026-05-06 10:50 | -33.89204 | 150.90724 | 3483 ft | 87 kts | 297° |
| 2026-05-06 10:50 | -33.89001 | 150.90041 | 3768 ft | 86 kts | 297° |
| 2026-05-06 10:50 | -33.88802 | 150.89369 | 4055 ft | 86 kts | 296° |
| 2026-05-06 10:50 | -33.88602 | 150.88698 | 4328 ft | 86 kts | 295° |
| 2026-05-06 10:51 | -33.88400 | 150.88016 | 4615 ft | 86 kts | 294° |
| 2026-05-06 10:51 | -33.88203 | 150.87349 | 4894 ft | 85 kts | 294° |
| 2026-05-06 10:51 | -33.88006 | 150.86681 | 5171 ft | 85 kts | 293° |
| 2026-05-06 10:51 | -33.87809 | 150.86009 | 5457 ft | 85 kts | 293° |
| 2026-05-06 10:52 | -33.87612 | 150.85341 | 5742 ft | 84 kts | 293° |
| 2026-05-06 10:52 | -33.87416 | 150.84676 | 6016 ft | 85 kts | 292° |
| 2026-05-06 10:52 | -33.87218 | 150.84004 | 6302 ft | 84 kts | 293° |
| 2026-05-06 10:52 | -33.87025 | 150.83351 | 6571 ft | 84 kts | 292° |
| 2026-05-06 10:53 | -33.86826 | 150.82680 | 6834 ft | 85 kts | 292° |
| 2026-05-06 10:53 | -33.86628 | 150.82011 | 7096 ft | 86 kts | 292° |
| 2026-05-06 10:53 | -33.86424 | 150.81323 | 7361 ft | 87 kts | 291° |
| 2026-05-06 10:53 | -33.86223 | 150.80644 | 7627 ft | 87 kts | 292° |
| 2026-05-06 10:54 | -33.86017 | 150.79952 | 7895 ft | 88 kts | 291° |
| 2026-05-06 10:54 | -33.85812 | 150.79260 | 8150 ft | 88 kts | 291° |
| 2026-05-06 10:54 | -33.85606 | 150.78566 | 8418 ft | 88 kts | 291° |
| 2026-05-06 10:54 | -33.85401 | 150.77878 | 8682 ft | 88 kts | 291° |
| 2026-05-06 10:55 | -33.85195 | 150.77181 | 8944 ft | 89 kts | 291° |
| 2026-05-06 10:55 | -33.84987 | 150.76482 | 9206 ft | 89 kts | 291° |
| 2026-05-06 10:55 | -33.84779 | 150.75778 | 9464 ft | 89 kts | 291° |
| 2026-05-06 10:55 | -33.84575 | 150.75085 | 9731 ft | 89 kts | 290° |
| 2026-05-06 10:56 | -33.84367 | 150.74379 | 9980 ft | 90 kts | 290° |
| 2026-05-06 10:56 | -33.84158 | 150.73666 | 10236 ft | 91 kts | 289° |
| 2026-05-06 10:56 | -33.83947 | 150.72945 | 10494 ft | 91 kts | 290° |
| 2026-05-06 10:56 | -33.83738 | 150.72234 | 10745 ft | 91 kts | 290° |
| 2026-05-06 10:57 | -33.83523 | 150.71510 | 10988 ft | 92 kts | 290° |
| 2026-05-06 10:57 | -33.83311 | 150.70793 | 11230 ft | 92 kts | 290° |
| 2026-05-06 10:57 | -33.83094 | 150.70061 | 11482 ft | 92 kts | 290° |
| 2026-05-06 10:57 | -33.82878 | 150.69334 | 11728 ft | 92 kts | 290° |
| 2026-05-06 10:58 | -33.82662 | 150.68607 | 11977 ft | 93 kts | 290° |
| 2026-05-06 10:58 | -33.82427 | 150.67818 | 12062 ft | 109 kts | 290° |
| 2026-05-06 10:58 | -33.82151 | 150.66891 | 12079 ft | 126 kts | 290° |
| 2026-05-06 10:58 | -33.81838 | 150.65842 | 12074 ft | 139 kts | 290° |
| 2026-05-06 10:59 | -33.81501 | 150.64712 | 12071 ft | 148 kts | 290° |
| 2026-05-06 10:59 | -33.81146 | 150.63528 | 12069 ft | 153 kts | 290° |
| 2026-05-06 10:59 | -33.80780 | 150.62302 | 12062 ft | 157 kts | 290° |
| 2026-05-06 10:59 | -33.80405 | 150.61043 | 12057 ft | 159 kts | 290° |
| 2026-05-06 11:00 | -33.80030 | 150.59787 | 12062 ft | 160 kts | 290° |
| 2026-05-06 11:00 | -33.79524 | 150.58093 | 12069 ft | 161 kts | 290° |
| 2026-05-06 11:00 | -33.79277 | 150.57263 | 12072 ft | 161 kts | 290° |
| 2026-05-06 11:00 | -33.78893 | 150.55980 | 12075 ft | 162 kts | 290° |
| 2026-05-06 11:01 | -33.78513 | 150.54707 | 12070 ft | 162 kts | 290° |
| 2026-05-06 11:01 | -33.78133 | 150.53433 | 12070 ft | 162 kts | 290° |
| 2026-05-06 11:01 | -33.77751 | 150.52156 | 12069 ft | 162 kts | 290° |
| 2026-05-06 11:01 | -33.77370 | 150.50880 | 12073 ft | 162 kts | 290° |
| 2026-05-06 11:02 | -33.76987 | 150.49603 | 12070 ft | 162 kts | 290° |
| 2026-05-06 11:02 | -33.76607 | 150.48334 | 12068 ft | 162 kts | 290° |
| 2026-05-06 11:02 | -33.76225 | 150.47058 | 12070 ft | 162 kts | 290° |
| 2026-05-06 11:02 | -33.75842 | 150.45781 | 12071 ft | 162 kts | 290° |
| 2026-05-06 11:03 | -33.75455 | 150.44485 | 12072 ft | 162 kts | 290° |
| 2026-05-06 11:03 | -33.75074 | 150.43210 | 12069 ft | 162 kts | 290° |
| 2026-05-06 11:03 | -33.74693 | 150.41934 | 12067 ft | 162 kts | 290° |
| 2026-05-06 11:03 | -33.74317 | 150.40674 | 12071 ft | 162 kts | 290° |
| 2026-05-06 11:04 | -33.73935 | 150.39400 | 12075 ft | 162 kts | 290° |
| 2026-05-06 11:04 | -33.73552 | 150.38119 | 12083 ft | 162 kts | 290° |
| 2026-05-06 11:04 | -33.73169 | 150.36845 | 12082 ft | 162 kts | 290° |
| 2026-05-06 11:04 | -33.72789 | 150.35577 | 12083 ft | 162 kts | 290° |
| 2026-05-06 11:05 | -33.72400 | 150.34288 | 12088 ft | 162 kts | 290° |
| 2026-05-06 11:05 | -33.72037 | 150.33081 | 12087 ft | 162 kts | 290° |
| 2026-05-06 11:05 | -33.71650 | 150.31796 | 12091 ft | 162 kts | 290° |
| 2026-05-06 11:05 | -33.71263 | 150.30512 | 12093 ft | 162 kts | 290° |
| 2026-05-06 11:06 | -33.70782 | 150.29282 | 12092 ft | 162 kts | 298° |
| 2026-05-06 11:06 | -33.70242 | 150.28090 | 12090 ft | 162 kts | 298° |
| 2026-05-06 11:06 | -33.69694 | 150.26895 | 12097 ft | 162 kts | 298° |
| 2026-05-06 11:06 | -33.69150 | 150.25708 | 12096 ft | 162 kts | 298° |
| 2026-05-06 11:07 | -33.68605 | 150.24516 | 12095 ft | 162 kts | 298° |
| 2026-05-06 11:07 | -33.68061 | 150.23329 | 12097 ft | 162 kts | 298° |
| 2026-05-06 11:07 | -33.67517 | 150.22144 | 12093 ft | 162 kts | 298° |
| 2026-05-06 11:07 | -33.66975 | 150.20961 | 12095 ft | 161 kts | 298° |
| 2026-05-06 11:08 | -33.66431 | 150.19777 | 12101 ft | 162 kts | 298° |
| 2026-05-06 11:08 | -33.65886 | 150.18588 | 12098 ft | 162 kts | 298° |
| 2026-05-06 11:08 | -33.65348 | 150.17418 | 12098 ft | 161 kts | 298° |
| 2026-05-06 11:08 | -33.64798 | 150.16220 | 12101 ft | 161 kts | 298° |
| 2026-05-06 11:09 | -33.64256 | 150.15042 | 12099 ft | 162 kts | 298° |
| 2026-05-06 11:09 | -33.63711 | 150.13856 | 12099 ft | 162 kts | 298° |
| 2026-05-06 11:09 | -33.63164 | 150.12668 | 12095 ft | 162 kts | 298° |
| 2026-05-06 11:09 | -33.62620 | 150.11485 | 12092 ft | 162 kts | 298° |
| 2026-05-06 11:10 | -33.62077 | 150.10303 | 12094 ft | 162 kts | 298° |
| 2026-05-06 11:10 | -33.61535 | 150.09125 | 12096 ft | 162 kts | 298° |
| 2026-05-06 11:10 | -33.60991 | 150.07942 | 12101 ft | 161 kts | 298° |
| 2026-05-06 11:10 | -33.60446 | 150.06760 | 12095 ft | 161 kts | 298° |
| 2026-05-06 11:11 | -33.59896 | 150.05568 | 12092 ft | 161 kts | 298° |
| 2026-05-06 11:11 | -33.59353 | 150.04388 | 12095 ft | 161 kts | 298° |
| 2026-05-06 11:11 | -33.58812 | 150.03215 | 12099 ft | 161 kts | 298° |
| 2026-05-06 11:11 | -33.58273 | 150.02045 | 12102 ft | 161 kts | 298° |
| 2026-05-06 11:12 | -33.57724 | 150.00854 | 12102 ft | 161 kts | 298° |
| 2026-05-06 11:12 | -33.57179 | 149.99675 | 12104 ft | 162 kts | 298° |
| 2026-05-06 11:12 | -33.56633 | 149.98494 | 12100 ft | 162 kts | 298° |
| 2026-05-06 11:12 | -33.56083 | 149.97301 | 12094 ft | 162 kts | 298° |
| 2026-05-06 11:13 | -33.55537 | 149.96120 | 12095 ft | 161 kts | 298° |
| 2026-05-06 11:13 | -33.54992 | 149.94942 | 12098 ft | 161 kts | 298° |
| 2026-05-06 11:13 | -33.54449 | 149.93765 | 12094 ft | 161 kts | 298° |
| 2026-05-06 11:13 | -33.53907 | 149.92593 | 12096 ft | 161 kts | 298° |
| 2026-05-06 11:14 | -33.53363 | 149.91419 | 12097 ft | 161 kts | 298° |
| 2026-05-06 11:14 | -33.52820 | 149.90243 | 12103 ft | 161 kts | 298° |
| 2026-05-06 11:14 | -33.52272 | 149.89058 | 12101 ft | 161 kts | 298° |
| 2026-05-06 11:14 | -33.51729 | 149.87886 | 12102 ft | 161 kts | 298° |
| 2026-05-06 11:15 | -33.51192 | 149.86726 | 12102 ft | 161 kts | 298° |
| 2026-05-06 11:15 | -33.50641 | 149.85538 | 12105 ft | 161 kts | 298° |
| 2026-05-06 11:15 | -33.50100 | 149.84369 | 12107 ft | 160 kts | 298° |
| 2026-05-06 11:15 | -33.49553 | 149.83189 | 12105 ft | 161 kts | 298° |
| 2026-05-06 11:16 | -33.49007 | 149.82011 | 12104 ft | 161 kts | 298° |
| 2026-05-06 11:16 | -33.48459 | 149.80838 | 12103 ft | 161 kts | 299° |
| 2026-05-06 11:16 | -33.47908 | 149.79666 | 12104 ft | 161 kts | 299° |
| 2026-05-06 11:16 | -33.47359 | 149.78490 | 12107 ft | 162 kts | 299° |
| 2026-05-06 11:17 | -33.46809 | 149.77310 | 12103 ft | 162 kts | 299° |
| 2026-05-06 11:17 | -33.46258 | 149.76129 | 12104 ft | 162 kts | 298° |
| 2026-05-06 11:17 | -33.45709 | 149.74950 | 12102 ft | 162 kts | 298° |
| 2026-05-06 11:17 | -33.45160 | 149.73770 | 12101 ft | 161 kts | 298° |
| 2026-05-06 11:18 | -33.44616 | 149.72597 | 12105 ft | 161 kts | 298° |
| 2026-05-06 11:18 | -33.44074 | 149.71428 | 12108 ft | 161 kts | 298° |
| 2026-05-06 11:18 | -33.43526 | 149.70250 | 12106 ft | 161 kts | 299° |
| 2026-05-06 11:18 | -33.42977 | 149.69075 | 12103 ft | 161 kts | 299° |
| 2026-05-06 11:19 | -33.42430 | 149.67903 | 12103 ft | 161 kts | 299° |
| 2026-05-06 11:19 | -33.41886 | 149.66734 | 12106 ft | 161 kts | 299° |
| 2026-05-06 11:19 | -33.41260 | 149.65633 | 12101 ft | 162 kts | 316° |
| 2026-05-06 11:19 | -33.40380 | 149.64787 | 12105 ft | 162 kts | 319° |
| 2026-05-06 11:20 | -33.39488 | 149.63954 | 12106 ft | 162 kts | 319° |
| 2026-05-06 11:20 | -33.38585 | 149.63107 | 12104 ft | 162 kts | 319° |
| 2026-05-06 11:20 | -33.37690 | 149.62276 | 12106 ft | 162 kts | 319° |
| 2026-05-06 11:20 | -33.36795 | 149.61447 | 12107 ft | 162 kts | 319° |
| 2026-05-06 11:21 | -33.35897 | 149.60619 | 12107 ft | 163 kts | 319° |
| 2026-05-06 11:21 | -33.34998 | 149.59792 | 12106 ft | 163 kts | 319° |
| 2026-05-06 11:21 | -33.34100 | 149.58964 | 12104 ft | 162 kts | 319° |
| 2026-05-06 11:21 | -33.33201 | 149.58141 | 12105 ft | 162 kts | 319° |
| 2026-05-06 11:22 | -33.32305 | 149.57318 | 12106 ft | 162 kts | 319° |
| 2026-05-06 11:22 | -33.31396 | 149.56483 | 12106 ft | 162 kts | 319° |
| 2026-05-06 11:22 | -33.30499 | 149.55661 | 12105 ft | 162 kts | 319° |
| 2026-05-06 11:22 | -33.29602 | 149.54839 | 12104 ft | 162 kts | 319° |
| 2026-05-06 11:23 | -33.28700 | 149.54011 | 12107 ft | 162 kts | 319° |
| 2026-05-06 11:23 | -33.27802 | 149.53189 | 12107 ft | 162 kts | 319° |
| 2026-05-06 11:23 | -33.26902 | 149.52364 | 12107 ft | 163 kts | 319° |
| 2026-05-06 11:23 | -33.26002 | 149.51541 | 12104 ft | 163 kts | 319° |
| 2026-05-06 11:24 | -33.25096 | 149.50711 | 12102 ft | 163 kts | 319° |
| 2026-05-06 11:24 | -33.24204 | 149.49895 | 12101 ft | 162 kts | 319° |
| 2026-05-06 11:24 | -33.23299 | 149.49068 | 12100 ft | 162 kts | 319° |
| 2026-05-06 11:24 | -33.22403 | 149.48248 | 12106 ft | 162 kts | 319° |
| 2026-05-06 11:25 | -33.21506 | 149.47427 | 12105 ft | 162 kts | 319° |
| 2026-05-06 11:25 | -33.20605 | 149.46605 | 12109 ft | 163 kts | 319° |
| 2026-05-06 11:25 | -33.19703 | 149.45781 | 12106 ft | 163 kts | 319° |
| 2026-05-06 11:25 | -33.18798 | 149.44954 | 12100 ft | 163 kts | 319° |
| 2026-05-06 11:26 | -33.17905 | 149.44139 | 12101 ft | 162 kts | 320° |
| 2026-05-06 11:26 | -33.17001 | 149.43324 | 12104 ft | 162 kts | 320° |
| 2026-05-06 11:26 | -33.16089 | 149.42496 | 12106 ft | 163 kts | 320° |
| 2026-05-06 11:26 | -33.15186 | 149.41675 | 12107 ft | 163 kts | 320° |
| 2026-05-06 11:27 | -33.14282 | 149.40851 | 12103 ft | 163 kts | 320° |
| 2026-05-06 11:27 | -33.13376 | 149.40025 | 12099 ft | 163 kts | 320° |
| 2026-05-06 11:27 | -33.12469 | 149.39198 | 12102 ft | 163 kts | 320° |
| 2026-05-06 11:27 | -33.11568 | 149.38379 | 12100 ft | 163 kts | 320° |
| 2026-05-06 11:28 | -33.10668 | 149.37560 | 12107 ft | 163 kts | 320° |
| 2026-05-06 11:28 | -33.09755 | 149.36732 | 12107 ft | 164 kts | 321° |
| 2026-05-06 11:28 | -33.08847 | 149.35904 | 12103 ft | 163 kts | 320° |
| 2026-05-06 11:28 | -33.07939 | 149.35075 | 12105 ft | 163 kts | 320° |
| 2026-05-06 11:29 | -33.07014 | 149.34233 | 12109 ft | 164 kts | 320° |
| 2026-05-06 11:29 | -33.06161 | 149.33456 | 12108 ft | 164 kts | 320° |
| 2026-05-06 11:29 | -33.05251 | 149.32628 | 12107 ft | 164 kts | 320° |
| 2026-05-06 11:29 | -33.04397 | 149.31709 | 12110 ft | 163 kts | 312° |
| 2026-05-06 11:30 | -33.03606 | 149.30734 | 12108 ft | 164 kts | 312° |
| 2026-05-06 11:30 | -33.02824 | 149.29753 | 12108 ft | 164 kts | 312° |
| 2026-05-06 11:30 | -33.02037 | 149.28758 | 12107 ft | 164 kts | 311° |
| 2026-05-06 11:30 | -33.01260 | 149.27768 | 12107 ft | 163 kts | 311° |
| 2026-05-06 11:31 | -33.00483 | 149.26778 | 12104 ft | 164 kts | 312° |
| 2026-05-06 11:31 | -32.99696 | 149.25774 | 12105 ft | 163 kts | 312° |
| 2026-05-06 11:31 | -32.98920 | 149.24780 | 12104 ft | 163 kts | 312° |
| 2026-05-06 11:31 | -32.98141 | 149.23785 | 12103 ft | 164 kts | 312° |
| 2026-05-06 11:32 | -32.97368 | 149.22798 | 12098 ft | 163 kts | 312° |
| 2026-05-06 11:32 | -32.96590 | 149.21803 | 12103 ft | 163 kts | 312° |
| 2026-05-06 11:32 | -32.95811 | 149.20808 | 12070 ft | 166 kts | 311° |
| 2026-05-06 11:32 | -32.95009 | 149.19783 | 11955 ft | 171 kts | 311° |
| 2026-05-06 11:33 | -32.94206 | 149.18756 | 12085 ft | 161 kts | 311° |
| 2026-05-06 11:33 | -32.93440 | 149.17772 | 12094 ft | 161 kts | 311° |
| 2026-05-06 11:33 | -32.92672 | 149.16789 | 12101 ft | 162 kts | 311° |
| 2026-05-06 11:33 | -32.91901 | 149.15807 | 12108 ft | 162 kts | 312° |
| 2026-05-06 11:34 | -32.91134 | 149.14830 | 12110 ft | 163 kts | 312° |
| 2026-05-06 11:34 | -32.90355 | 149.13834 | 12109 ft | 163 kts | 311° |
| 2026-05-06 11:34 | -32.89576 | 149.12840 | 12110 ft | 163 kts | 311° |
| 2026-05-06 11:34 | -32.88847 | 149.11908 | 12106 ft | 163 kts | 311° |
| 2026-05-06 11:35 | -32.88137 | 149.11002 | 12108 ft | 163 kts | 311° |
| 2026-05-06 11:35 | -32.87347 | 149.09994 | 12108 ft | 164 kts | 311° |
| 2026-05-06 11:35 | -32.86568 | 149.09000 | 12112 ft | 164 kts | 311° |
| 2026-05-06 11:35 | -32.85789 | 149.08006 | 12110 ft | 165 kts | 311° |
| 2026-05-06 11:36 | -32.85001 | 149.07002 | 12108 ft | 165 kts | 311° |
| 2026-05-06 11:36 | -32.84210 | 149.05994 | 12105 ft | 165 kts | 311° |
| 2026-05-06 11:36 | -32.83429 | 149.04999 | 12104 ft | 165 kts | 311° |
| 2026-05-06 11:36 | -32.82636 | 149.03990 | 12107 ft | 164 kts | 312° |
| 2026-05-06 11:37 | -32.81853 | 149.02992 | 12109 ft | 164 kts | 312° |
| 2026-05-06 11:37 | -32.81079 | 149.02006 | 12105 ft | 164 kts | 312° |
| 2026-05-06 11:37 | -32.80298 | 149.01013 | 12110 ft | 164 kts | 312° |
| 2026-05-06 11:37 | -32.79519 | 149.00023 | 12110 ft | 164 kts | 311° |
| 2026-05-06 11:38 | -32.78741 | 148.99033 | 12111 ft | 164 kts | 311° |
| 2026-05-06 11:38 | -32.77951 | 148.98030 | 12112 ft | 164 kts | 311° |
| 2026-05-06 11:38 | -32.77173 | 148.97040 | 12110 ft | 164 kts | 311° |
| 2026-05-06 11:38 | -32.76395 | 148.96053 | 12114 ft | 164 kts | 311° |
| 2026-05-06 11:39 | -32.75618 | 148.95065 | 12117 ft | 164 kts | 311° |
| 2026-05-06 11:39 | -32.74830 | 148.94063 | 12118 ft | 164 kts | 311° |
| 2026-05-06 11:39 | -32.74043 | 148.93063 | 12119 ft | 165 kts | 311° |
| 2026-05-06 11:39 | -32.73257 | 148.92064 | 12115 ft | 165 kts | 311° |
| 2026-05-06 11:40 | -32.72472 | 148.91069 | 12112 ft | 164 kts | 311° |
| 2026-05-06 11:40 | -32.71695 | 148.90083 | 12112 ft | 164 kts | 311° |
| 2026-05-06 11:40 | -32.70913 | 148.89092 | 12108 ft | 164 kts | 311° |
| 2026-05-06 11:40 | -32.70136 | 148.88106 | 12115 ft | 163 kts | 311° |
| 2026-05-06 11:41 | -32.69347 | 148.87102 | 12119 ft | 164 kts | 311° |
| 2026-05-06 11:41 | -32.68567 | 148.86114 | 12119 ft | 164 kts | 311° |
| 2026-05-06 11:41 | -32.67784 | 148.85124 | 12115 ft | 164 kts | 312° |
| 2026-05-06 11:41 | -32.67007 | 148.84142 | 12118 ft | 164 kts | 311° |
| 2026-05-06 11:42 | -32.66224 | 148.83151 | 12124 ft | 164 kts | 312° |
| 2026-05-06 11:42 | -32.65445 | 148.82164 | 12124 ft | 164 kts | 311° |
| 2026-05-06 11:42 | -32.64692 | 148.81215 | 12038 ft | 153 kts | 311° |
| 2026-05-06 11:42 | -32.63981 | 148.80312 | 11859 ft | 147 kts | 311° |
| 2026-05-06 11:43 | -32.63283 | 148.79427 | 11679 ft | 143 kts | 311° |
| 2026-05-06 11:43 | -32.62609 | 148.78574 | 11500 ft | 140 kts | 311° |
| 2026-05-06 11:43 | -32.61944 | 148.77733 | 11323 ft | 138 kts | 311° |
| 2026-05-06 11:44 | -32.60644 | 148.76088 | 10976 ft | 135 kts | 311° |
| 2026-05-06 11:44 | -32.60003 | 148.75276 | 10798 ft | 134 kts | 311° |
| 2026-05-06 11:44 | -32.59362 | 148.74464 | 10620 ft | 133 kts | 311° |
| 2026-05-06 11:44 | -32.58730 | 148.73668 | 10445 ft | 132 kts | 311° |
| 2026-05-06 11:45 | -32.58105 | 148.72879 | 10270 ft | 131 kts | 311° |
| 2026-05-06 11:45 | -32.57473 | 148.72081 | 10090 ft | 130 kts | 311° |
| 2026-05-06 11:45 | -32.56855 | 148.71306 | 9915 ft | 130 kts | 311° |
| 2026-05-06 11:45 | -32.56240 | 148.70529 | 9739 ft | 129 kts | 310° |
| 2026-05-06 11:46 | -32.55627 | 148.69754 | 9558 ft | 128 kts | 310° |
| 2026-05-06 11:46 | -32.55019 | 148.68986 | 9378 ft | 126 kts | 310° |
| 2026-05-06 11:46 | -32.54419 | 148.68230 | 9202 ft | 124 kts | 310° |
| 2026-05-06 11:46 | -32.53828 | 148.67484 | 9023 ft | 122 kts | 310° |
| 2026-05-06 11:47 | -32.53255 | 148.66760 | 8862 ft | 119 kts | 310° |
| 2026-05-06 11:47 | -32.52697 | 148.66057 | 8717 ft | 115 kts | 310° |
| 2026-05-06 11:47 | -32.52161 | 148.65382 | 8585 ft | 110 kts | 310° |
| 2026-05-06 11:47 | -32.51627 | 148.64708 | 8468 ft | 115 kts | 310° |
| 2026-05-06 11:48 | -32.51064 | 148.63997 | 8341 ft | 122 kts | 310° |
| 2026-05-06 11:48 | -32.50460 | 148.63243 | 8199 ft | 127 kts | 311° |
| 2026-05-06 11:48 | -32.49842 | 148.62462 | 8052 ft | 131 kts | 311° |
| 2026-05-06 11:48 | -32.49202 | 148.61656 | 7893 ft | 135 kts | 311° |
| 2026-05-06 11:49 | -32.48554 | 148.60840 | 7733 ft | 137 kts | 311° |
| 2026-05-06 11:49 | -32.47895 | 148.60013 | 7573 ft | 138 kts | 311° |
| 2026-05-06 11:49 | -32.47240 | 148.59189 | 7416 ft | 139 kts | 311° |
| 2026-05-06 11:49 | -32.46574 | 148.58351 | 7261 ft | 139 kts | 311° |
| 2026-05-06 11:50 | -32.45906 | 148.57512 | 7107 ft | 140 kts | 311° |
| 2026-05-06 11:50 | -32.45241 | 148.56676 | 6951 ft | 139 kts | 311° |
| 2026-05-06 11:50 | -32.44576 | 148.55839 | 6792 ft | 138 kts | 311° |
| 2026-05-06 11:50 | -32.43917 | 148.55011 | 6637 ft | 138 kts | 311° |
| 2026-05-06 11:51 | -32.43259 | 148.54187 | 6485 ft | 137 kts | 310° |
| 2026-05-06 11:51 | -32.42603 | 148.53363 | 6330 ft | 136 kts | 310° |
| 2026-05-06 11:51 | -32.41946 | 148.52539 | 6179 ft | 136 kts | 310° |
| 2026-05-06 11:51 | -32.41296 | 148.51721 | 6029 ft | 135 kts | 310° |
| 2026-05-06 11:52 | -32.40648 | 148.50906 | 5880 ft | 135 kts | 310° |
| 2026-05-06 11:52 | -32.39999 | 148.50093 | 5731 ft | 136 kts | 310° |
| 2026-05-06 11:52 | -32.39350 | 148.49278 | 5583 ft | 136 kts | 310° |
| 2026-05-06 11:52 | -32.38703 | 148.48468 | 5433 ft | 136 kts | 309° |
| 2026-05-06 11:53 | -32.38054 | 148.47652 | 5283 ft | 136 kts | 310° |
| 2026-05-06 11:53 | -32.37399 | 148.46832 | 5131 ft | 136 kts | 309° |
| 2026-05-06 11:53 | -32.36740 | 148.46007 | 4981 ft | 137 kts | 309° |
| 2026-05-06 11:53 | -32.36088 | 148.45189 | 4831 ft | 137 kts | 309° |
| 2026-05-06 11:54 | -32.35432 | 148.44368 | 4679 ft | 137 kts | 309° |
| 2026-05-06 11:54 | -32.34775 | 148.43550 | 4529 ft | 137 kts | 309° |
| 2026-05-06 11:54 | -32.34107 | 148.42715 | 4375 ft | 137 kts | 308° |
| 2026-05-06 11:54 | -32.33451 | 148.41899 | 4258 ft | 135 kts | 311° |
| 2026-05-06 11:55 | -32.32589 | 148.41515 | 4234 ft | 136 kts | 358° |
| 2026-05-06 11:55 | -32.31679 | 148.41745 | 4236 ft | 131 kts | 12° |
| 2026-05-06 11:55 | -32.30822 | 148.42038 | 4235 ft | 125 kts | 12° |
| 2026-05-06 11:55 | -32.29989 | 148.42311 | 4238 ft | 121 kts | 11° |
| 2026-05-06 11:56 | -32.29182 | 148.42561 | 4240 ft | 118 kts | 11° |
| 2026-05-06 11:56 | -32.28385 | 148.42796 | 4188 ft | 121 kts | 10° |
| 2026-05-06 11:56 | -32.27551 | 148.43164 | 4029 ft | 131 kts | 32° |
| 2026-05-06 11:56 | -32.26921 | 148.43942 | 3979 ft | 129 kts | 55° |
| 2026-05-06 11:57 | -32.26423 | 148.44812 | 3963 ft | 126 kts | 54° |
| 2026-05-06 11:57 | -32.26042 | 148.45770 | 3872 ft | 129 kts | 69° |
| 2026-05-06 11:57 | -32.25580 | 148.46689 | 3775 ft | 133 kts | 55° |
| 2026-05-06 11:57 | -32.25069 | 148.47609 | 3691 ft | 134 kts | 60° |
| 2026-05-06 11:58 | -32.24577 | 148.48604 | 3473 ft | 145 kts | 60° |
| 2026-05-06 11:58 | -32.24054 | 148.49652 | 3257 ft | 151 kts | 61° |
| 2026-05-06 11:58 | -32.23517 | 148.50745 | 3036 ft | 155 kts | 62° |
| 2026-05-06 11:58 | -32.23020 | 148.51889 | 2807 ft | 156 kts | 73° |
| 2026-05-06 11:59 | -32.22878 | 148.53052 | 2622 ft | 120 kts | 92° |
| 2026-05-06 11:59 | -32.22846 | 148.53954 | 2265 ft | 105 kts | 89° |
| 2026-05-06 11:59 | -32.22735 | 148.54788 | 1845 ft | 101 kts | 83° |
| 2026-05-06 11:59 | -32.22599 | 148.55563 | 1487 ft | 92 kts | 79° |
| 2026-05-06 12:00 | -32.22458 | 148.56282 | 1145 ft | 89 kts | 78° |
| 2026-05-06 12:00 | -32.22223 | 148.56969 | 945 ft | 85 kts | 50° |
| 2026-05-06 12:00 | -32.21950 | 148.57414 | 938 ft | 34 kts | 47° |
| 2026-05-06 12:00 | -32.21895 | 148.57428 | 938 ft | 6 kts | 295° |
| 2026-05-06 12:01 | -32.21885 | 148.57375 | 938 ft | 6 kts | 280° |
| 2026-05-06 12:01 | -32.21876 | 148.57307 | 938 ft | 12 kts | 281° |
| 2026-05-06 12:01 | -32.21862 | 148.57216 | 938 ft | 10 kts | 277° |
| 2026-05-06 12:01 | -32.21853 | 148.57134 | 938 ft | 9 kts | 275° |
| 2026-05-06 12:02 | -32.21825 | 148.57085 | 938 ft | 6 kts | 333° |
| 2026-05-06 12:02 | -32.21790 | 148.57057 | 938 ft | 5 kts | 321° |
| 2026-05-06 12:02 | -32.21783 | 148.57048 | 938 ft | 0 kts | 302° |